Accueil
METAR-TAF:

METAR-TAF

Aéroports :

Aéroport de Rafha

Rafha, Arabie saoudite

latitude: 29-37N, longitude: 043-29E, altitude: 449 m

Observation

Le bulletin a été fait il y a 23 minutes, à 10:00 UTC
Vent 8 kt de ouest/nord-ouest
Température 45°C
Humidité 10%
Pression 999 hPa
Visibilité 10 km ou plus
pas de nuages en-dessous de 1500 mètres et pas de cumulonimbus.

METAR: OERF 071000Z 30008KT CAVOK 45/06 Q0999

Heure: 13:23 (10:23 UTC)

Prévision

Le bulletin a été fait il y a 11 heures et 23 minutes, à 23:00 UTC
Prévision valable du 07 à 00 UTC au 08 à 06 UTC
Vent 12 kt de ouest
Visibilité 10 km ou plus
pas de nuages en-dessous de 1500 mètres et pas de cumulonimbus.
Evoluant progressivement
du 07 à 06 UTC au 07 à 08 UTC
Vent 16 kt de nord/nord-ouest

TAF: OERF 062300Z 0700/0806 27012KT CAVOK BECMG 0706/0708 33016KT

Observations et prévisions météorologiques de plus de 4000 aéroports (messages METAR et TAF).

Les stations disponibles sont représentées par des disques jaunes et rouges sur la carte.

Passer la souris dessus pour voir le nom de la station.

Cliquer dessus pour voir les observations et prévisions météorologiques.

Pour changer de carte: cliquez sur les boutons verts avec une croix noire pour zoomer, sur le bouton vert avec un tiret pour effectuer un zoom arrière, ou sur les flèches vertes pour les cartes adjacentes.


METAR-TAF: